createdAt,value
2019-05-26T00:00:12.557Z,16.30
2019-05-26T00:02:38.873Z,16.30
2019-05-26T00:05:06.331Z,16.20
2019-05-26T00:07:32.763Z,16.20
2019-05-26T00:09:59.116Z,16.10
2019-05-26T00:12:25.426Z,16.10
2019-05-26T00:14:51.958Z,16.10
2019-05-26T00:17:18.393Z,16.00
2019-05-26T00:19:44.824Z,16.00
2019-05-26T00:22:11.154Z,15.90
2019-05-26T00:24:37.427Z,15.90
2019-05-26T00:27:03.939Z,15.90
2019-05-26T00:29:30.673Z,15.90
2019-05-26T00:31:57.091Z,15.90
2019-05-26T00:34:23.420Z,15.80
2019-05-26T00:36:49.751Z,15.80
2019-05-26T00:39:16.186Z,15.80
2019-05-26T00:41:42.518Z,15.70
2019-05-26T00:44:08.844Z,15.70
2019-05-26T00:46:35.277Z,15.70
2019-05-26T00:49:01.915Z,15.70
2019-05-26T00:51:28.350Z,15.70
2019-05-26T00:53:54.934Z,15.60
2019-05-26T00:56:21.421Z,15.60
2019-05-26T00:58:47.753Z,15.50
2019-05-26T01:01:14.119Z,15.60
2019-05-26T01:03:40.512Z,15.50
2019-05-26T01:06:06.843Z,15.50
2019-05-26T01:08:33.173Z,15.50
2019-05-26T01:11:01.413Z,15.50
2019-05-26T01:13:27.580Z,15.40
2019-05-26T01:15:53.824Z,15.40
2019-05-26T01:18:20.237Z,15.30
2019-05-26T01:20:46.562Z,15.30
2019-05-26T01:23:12.964Z,15.40
2019-05-26T01:25:39.381Z,15.30
2019-05-26T01:28:06.109Z,15.30
2019-05-26T01:30:35.214Z,15.20
2019-05-26T01:33:01.904Z,15.20
2019-05-26T01:35:28.390Z,15.10
2019-05-26T01:37:54.672Z,15.10
2019-05-26T01:40:24.706Z,15.10
2019-05-26T01:42:51.119Z,15.00
2019-05-26T01:45:17.550Z,15.00
2019-05-26T01:47:43.985Z,15.00
2019-05-26T01:50:11.051Z,15.00
2019-05-26T01:52:37.670Z,14.90
2019-05-26T01:55:04.890Z,14.90
2019-05-26T01:57:31.263Z,14.90
2019-05-26T01:59:57.582Z,14.80
2019-05-26T02:02:23.911Z,14.80
2019-05-26T02:04:50.245Z,14.80
2019-05-26T02:07:17.733Z,14.80
2019-05-26T02:09:44.034Z,14.80
2019-05-26T02:12:10.681Z,14.70
2019-05-26T02:14:36.996Z,14.70
2019-05-26T02:17:03.889Z,14.70
2019-05-26T02:19:30.273Z,14.70
2019-05-26T02:21:56.807Z,14.70
2019-05-26T02:24:23.139Z,14.60
2019-05-26T02:26:49.381Z,14.60
2019-05-26T02:29:15.845Z,14.60
2019-05-26T02:31:42.159Z,14.60
2019-05-26T02:34:08.418Z,14.60
2019-05-26T02:36:34.723Z,14.60
2019-05-26T02:39:03.369Z,14.50
2019-05-26T02:41:29.401Z,14.50
2019-05-26T02:43:55.730Z,14.50
2019-05-26T02:46:22.256Z,14.50
2019-05-26T02:48:48.600Z,14.50
2019-05-26T02:51:14.852Z,14.50
2019-05-26T02:53:41.274Z,14.50
2019-05-26T02:56:07.798Z,14.50
2019-05-26T02:58:34.127Z,14.50
2019-05-26T03:01:01.698Z,14.50
2019-05-26T03:03:28.205Z,14.50
2019-05-26T03:05:55.371Z,14.50
2019-05-26T03:08:22.195Z,14.40
2019-05-26T03:10:49.766Z,14.40
2019-05-26T03:13:16.128Z,14.40
2019-05-26T03:15:43.302Z,14.40
2019-05-26T03:18:10.206Z,14.40
2019-05-26T03:20:40.494Z,14.40
2019-05-26T03:23:07.662Z,14.40
2019-05-26T03:25:36.146Z,14.40
2019-05-26T03:28:06.877Z,14.10
2019-05-26T03:30:34.083Z,14.40
2019-05-26T03:33:00.572Z,14.40
2019-05-26T03:35:26.895Z,14.40
2019-05-26T03:37:53.231Z,14.40
2019-05-26T03:40:19.553Z,14.40
2019-05-26T03:42:45.823Z,14.40
2019-05-26T03:45:15.953Z,14.40
2019-05-26T03:47:42.575Z,14.40
2019-05-26T03:50:09.174Z,14.50
2019-05-26T03:52:35.571Z,14.50
2019-05-26T03:55:03.086Z,14.50
2019-05-26T03:57:29.500Z,14.50
2019-05-26T03:59:55.781Z,14.60
2019-05-26T04:02:22.161Z,14.60
2019-05-26T04:04:48.712Z,14.60
2019-05-26T04:07:15.131Z,14.60
2019-05-26T04:09:41.419Z,14.70
2019-05-26T04:12:07.788Z,14.70
2019-05-26T04:14:34.131Z,14.70
2019-05-26T04:17:00.420Z,14.70
2019-05-26T04:19:26.784Z,14.80
2019-05-26T04:21:53.124Z,14.80
2019-05-26T04:24:19.547Z,14.80
2019-05-26T04:26:45.989Z,14.80
2019-05-26T04:29:12.409Z,14.90
2019-05-26T04:31:38.743Z,14.90
2019-05-26T04:34:05.479Z,14.90
2019-05-26T04:36:31.809Z,14.90
2019-05-26T04:38:58.149Z,15.00
2019-05-26T04:41:24.702Z,15.00
2019-05-26T04:43:51.109Z,15.10
2019-05-26T04:46:17.438Z,15.10
2019-05-26T04:48:43.767Z,15.10
2019-05-26T04:51:10.334Z,15.20
2019-05-26T04:53:36.718Z,15.20
2019-05-26T04:56:03.361Z,15.20
2019-05-26T04:58:29.751Z,15.30
2019-05-26T05:00:56.033Z,15.30
2019-05-26T05:03:22.291Z,15.40
2019-05-26T05:05:48.591Z,15.40
2019-05-26T05:08:14.932Z,15.50
2019-05-26T05:10:43.093Z,15.50
2019-05-26T05:13:09.734Z,15.60
2019-05-26T05:15:36.071Z,15.60
2019-05-26T05:18:02.496Z,15.70
2019-05-26T05:20:28.828Z,15.70
2019-05-26T05:22:55.519Z,15.80
2019-05-26T05:25:21.843Z,15.90
2019-05-26T05:27:48.615Z,16.00
2019-05-26T05:30:15.173Z,16.00
2019-05-26T05:32:41.503Z,16.10
2019-05-26T05:35:08.857Z,16.10
2019-05-26T05:37:35.267Z,16.20
2019-05-26T05:40:03.463Z,16.30
2019-05-26T05:42:30.120Z,16.40
2019-05-26T05:44:56.534Z,16.50
2019-05-26T05:47:22.825Z,16.60
2019-05-26T05:49:49.197Z,16.70
2019-05-26T05:52:15.526Z,16.80
2019-05-26T05:54:41.857Z,16.90
2019-05-26T05:57:08.393Z,16.90
2019-05-26T05:59:34.824Z,17.00
2019-05-26T06:02:01.054Z,17.00
2019-05-26T06:04:27.385Z,17.00
2019-05-26T06:06:53.715Z,17.10
2019-05-26T06:09:19.970Z,17.20
2019-05-26T06:11:46.375Z,17.40
2019-05-26T06:14:14.539Z,17.60
2019-05-26T06:16:41.045Z,17.90
2019-05-26T06:19:07.463Z,18.20
2019-05-26T06:21:33.898Z,18.50
2019-05-26T06:24:00.328Z,18.70
2019-05-26T06:26:26.658Z,19.00
2019-05-26T06:28:53.092Z,19.20
2019-05-26T06:31:19.421Z,19.30
2019-05-26T06:33:45.760Z,19.40
2019-05-26T06:36:12.082Z,19.50
2019-05-26T06:38:38.619Z,19.60
2019-05-26T06:41:05.056Z,19.60
2019-05-26T06:43:31.382Z,19.60
2019-05-26T06:45:57.655Z,19.50
2019-05-26T06:48:26.802Z,19.50
2019-05-26T06:50:52.218Z,19.50
2019-05-26T06:53:18.550Z,19.40
2019-05-26T06:55:44.878Z,19.50
2019-05-26T06:58:11.311Z,19.40
2019-05-26T07:00:37.644Z,19.50
2019-05-26T07:03:04.196Z,19.60
2019-05-26T07:05:30.621Z,19.60
2019-05-26T07:07:57.043Z,19.70
2019-05-26T07:10:23.408Z,19.80
2019-05-26T07:12:49.803Z,19.90
2019-05-26T07:15:17.671Z,20.00
2019-05-26T07:17:44.001Z,20.10
2019-05-26T07:20:10.638Z,20.10
2019-05-26T07:22:37.175Z,20.20
2019-05-26T07:25:05.127Z,20.30
2019-05-26T07:27:31.471Z,20.40
2019-05-26T07:29:58.108Z,20.40
2019-05-26T07:32:24.542Z,20.50
2019-05-26T07:34:52.392Z,20.60
2019-05-26T07:37:18.741Z,20.70
2019-05-26T07:39:45.072Z,20.80
2019-05-26T07:42:11.456Z,20.90
2019-05-26T07:44:37.834Z,20.90
2019-05-26T07:47:04.478Z,21.10
2019-05-26T07:49:30.802Z,21.10
2019-05-26T07:51:57.565Z,21.20
2019-05-26T07:54:25.870Z,21.30
2019-05-26T07:56:51.951Z,21.40
2019-05-26T07:59:18.602Z,21.40
2019-05-26T08:01:45.012Z,21.40
2019-05-26T08:04:11.244Z,21.50
2019-05-26T08:06:37.574Z,21.50
2019-05-26T08:09:06.766Z,21.50
2019-05-26T08:11:33.101Z,21.50
2019-05-26T08:13:59.430Z,21.50
2019-05-26T08:16:25.764Z,21.60
2019-05-26T08:18:51.976Z,21.60
2019-05-26T08:21:18.301Z,21.60
2019-05-26T08:23:44.677Z,21.70
2019-05-26T08:26:11.015Z,21.70
2019-05-26T08:28:37.637Z,21.80
2019-05-26T08:31:03.947Z,21.80
2019-05-26T08:33:30.234Z,21.90
2019-05-26T08:35:58.257Z,22.00
2019-05-26T08:38:24.577Z,22.10
2019-05-26T08:40:50.907Z,22.20
2019-05-26T08:43:17.177Z,22.30
2019-05-26T08:45:43.568Z,22.50
2019-05-26T08:48:10.000Z,22.60
2019-05-26T08:50:36.333Z,22.70
2019-05-26T08:53:03.283Z,22.80
2019-05-26T08:55:29.711Z,23.00
2019-05-26T08:57:56.040Z,23.10
2019-05-26T09:00:22.989Z,23.30
2019-05-26T09:02:50.685Z,23.40
2019-05-26T09:05:17.391Z,23.60
2019-05-26T09:07:44.064Z,23.80
2019-05-26T09:10:11.275Z,23.90
2019-05-26T09:12:37.948Z,24.00
2019-05-26T09:15:06.306Z,24.10
2019-05-26T09:17:32.727Z,24.20
2019-05-26T09:19:59.065Z,24.30
2019-05-26T09:22:25.505Z,24.40
2019-05-26T09:24:51.919Z,24.50
2019-05-26T09:27:18.356Z,24.60
2019-05-26T09:29:44.625Z,24.70
2019-05-26T09:32:10.912Z,24.70
2019-05-26T09:34:37.248Z,24.80
2019-05-26T09:37:03.894Z,24.90
2019-05-26T09:39:30.947Z,25.00
2019-05-26T09:41:57.469Z,25.10
2019-05-26T09:44:27.708Z,25.20
2019-05-26T09:46:54.019Z,25.20
2019-05-26T09:49:20.298Z,25.30
2019-05-26T09:51:46.721Z,25.40
2019-05-26T09:54:13.110Z,25.50
2019-05-26T09:56:39.546Z,25.60
2019-05-26T09:59:05.871Z,25.70
2019-05-26T10:01:32.014Z,25.90
2019-05-26T10:04:00.900Z,26.00
2019-05-26T10:06:27.033Z,26.10
2019-05-26T10:08:53.240Z,26.10
2019-05-26T10:11:21.206Z,26.10
2019-05-26T10:13:47.539Z,26.20
2019-05-26T10:16:13.810Z,26.20
2019-05-26T10:18:40.302Z,26.30
2019-05-26T10:21:06.634Z,26.40
2019-05-26T10:23:32.962Z,26.40
2019-05-26T10:25:59.293Z,26.50
2019-05-26T10:28:25.618Z,26.50
2019-05-26T10:30:52.057Z,26.60
2019-05-26T10:33:19.792Z,26.60
2019-05-26T10:35:46.051Z,26.60
2019-05-26T10:38:12.316Z,26.70
2019-05-26T10:40:38.711Z,26.70
2019-05-26T10:43:05.041Z,26.70
2019-05-26T10:45:34.308Z,26.70
2019-05-26T10:47:59.545Z,26.70
2019-05-26T10:50:25.877Z,26.70
2019-05-26T10:52:52.205Z,26.70
2019-05-26T10:55:18.538Z,26.70
2019-05-26T10:57:44.869Z,26.70
2019-05-26T11:00:11.300Z,26.70
2019-05-26T11:02:37.631Z,26.80
2019-05-26T11:05:04.883Z,26.80
2019-05-26T11:07:31.189Z,26.80
2019-05-26T11:09:57.503Z,26.90
2019-05-26T11:12:24.096Z,26.90
2019-05-26T11:14:50.731Z,27.00
2019-05-26T11:17:17.045Z,27.10
2019-05-26T11:19:43.479Z,27.10
2019-05-26T11:22:09.808Z,27.20
2019-05-26T11:24:36.091Z,27.20
2019-05-26T11:27:09.220Z,27.20
2019-05-26T11:29:30.851Z,27.20
2019-05-26T11:31:57.280Z,27.30
2019-05-26T11:34:23.610Z,27.40
2019-05-26T11:36:50.052Z,27.40
2019-05-26T11:39:16.355Z,27.50
2019-05-26T11:41:43.113Z,27.60
2019-05-26T11:44:17.596Z,27.70
2019-05-26T11:46:37.621Z,27.70
2019-05-26T11:49:04.052Z,27.80
2019-05-26T11:51:30.707Z,27.80
2019-05-26T11:53:57.225Z,27.80
2019-05-26T11:56:23.587Z,27.80
2019-05-26T11:58:50.020Z,27.80
2019-05-26T12:01:16.356Z,27.80
2019-05-26T12:03:42.812Z,27.80
2019-05-26T12:06:09.086Z,27.80
2019-05-26T12:08:35.413Z,27.80
2019-05-26T12:11:01.845Z,27.80
2019-05-26T12:13:28.154Z,27.80
2019-05-26T12:15:54.721Z,27.80
2019-05-26T12:18:21.123Z,27.80
2019-05-26T12:20:47.782Z,27.70
2019-05-26T12:23:15.757Z,27.80
2019-05-26T12:25:42.023Z,27.80
2019-05-26T12:28:08.386Z,27.80
2019-05-26T12:30:34.719Z,27.80
2019-05-26T12:33:01.051Z,27.80
2019-05-26T12:35:41.615Z,27.90
2019-05-26T12:38:07.945Z,27.90
2019-05-26T12:40:34.606Z,27.90
2019-05-26T12:43:01.014Z,27.90
2019-05-26T12:45:27.343Z,27.90
2019-05-26T12:47:53.675Z,27.90
2019-05-26T12:50:20.417Z,28.00
2019-05-26T12:52:46.744Z,28.00
2019-05-26T12:55:14.419Z,27.90
2019-05-26T12:57:40.880Z,27.90
2019-05-26T13:00:08.477Z,27.80
2019-05-26T13:02:34.934Z,27.80
2019-05-26T13:05:01.273Z,27.70
2019-05-26T13:07:27.988Z,27.70
2019-05-26T13:09:54.338Z,27.60
2019-05-26T13:12:20.689Z,27.60
2019-05-26T13:14:47.100Z,27.50
2019-05-26T13:17:13.554Z,27.50
2019-05-26T13:19:39.965Z,27.50
2019-05-26T13:22:06.295Z,27.60
2019-05-26T13:24:32.629Z,27.60
2019-05-26T13:26:59.055Z,27.60
2019-05-26T13:29:26.067Z,27.70
2019-05-26T13:31:52.741Z,27.70
2019-05-26T13:34:19.071Z,27.70
2019-05-26T13:36:45.298Z,27.70
2019-05-26T13:39:11.630Z,27.70
2019-05-26T13:41:38.372Z,27.70
2019-05-26T13:44:05.099Z,27.60
2019-05-26T13:46:31.440Z,27.50
2019-05-26T13:48:58.080Z,27.40
2019-05-26T13:51:24.408Z,27.30
2019-05-26T13:53:50.668Z,27.20
2019-05-26T13:56:17.293Z,27.10
2019-05-26T13:58:43.604Z,26.90
2019-05-26T14:01:09.938Z,26.80
2019-05-26T14:03:36.265Z,26.70
2019-05-26T14:06:02.768Z,26.60
2019-05-26T14:08:29.236Z,26.50
2019-05-26T14:10:55.666Z,26.40
2019-05-26T14:13:22.099Z,26.30
2019-05-26T14:15:49.467Z,26.20
2019-05-26T14:18:18.087Z,26.10
2019-05-26T14:20:44.281Z,26.00
2019-05-26T14:23:10.902Z,25.90
2019-05-26T14:25:37.437Z,25.80
2019-05-26T14:28:04.896Z,25.70
2019-05-26T14:30:31.234Z,25.70
2019-05-26T14:32:57.656Z,25.70
2019-05-26T14:35:24.222Z,25.70
2019-05-26T14:37:50.632Z,25.70
2019-05-26T14:40:17.674Z,25.70
2019-05-26T14:42:44.003Z,25.80
2019-05-26T14:45:10.893Z,25.90
2019-05-26T14:47:37.277Z,25.90
2019-05-26T14:50:05.861Z,25.90
2019-05-26T14:52:32.136Z,26.00
2019-05-26T14:54:58.521Z,26.10
2019-05-26T14:57:24.853Z,26.10
2019-05-26T14:59:51.285Z,26.20
2019-05-26T15:02:17.718Z,26.20
2019-05-26T15:04:44.007Z,26.20
2019-05-26T15:07:10.305Z,26.20
2019-05-26T15:09:36.709Z,26.20
2019-05-26T15:12:03.269Z,26.20
2019-05-26T15:14:29.586Z,26.20
2019-05-26T15:16:55.904Z,26.30
2019-05-26T15:19:22.575Z,26.30
2019-05-26T15:21:48.974Z,26.40
2019-05-26T15:24:15.201Z,26.40
2019-05-26T15:26:41.530Z,26.50
2019-05-26T15:29:07.861Z,26.60
2019-05-26T15:31:34.197Z,26.70
2019-05-26T15:34:00.628Z,26.80
2019-05-26T15:36:26.957Z,26.90
2019-05-26T15:38:53.252Z,27.00
2019-05-26T15:41:19.618Z,27.10
2019-05-26T15:43:45.948Z,27.10
2019-05-26T15:46:24.169Z,27.10
2019-05-26T15:48:40.332Z,27.10
2019-05-26T15:51:06.689Z,27.10
2019-05-26T15:53:32.933Z,27.10
2019-05-26T15:55:59.342Z,27.10
2019-05-26T15:58:25.570Z,27.00
2019-05-26T16:00:51.902Z,26.90
2019-05-26T16:03:18.161Z,26.90
2019-05-26T16:05:44.506Z,26.80
2019-05-26T16:08:10.896Z,26.70
2019-05-26T16:10:37.224Z,26.60
2019-05-26T16:13:03.573Z,26.50
2019-05-26T16:15:29.991Z,26.40
2019-05-26T16:17:56.422Z,26.30
2019-05-26T16:20:22.767Z,26.20
2019-05-26T16:22:49.904Z,26.10
2019-05-26T16:25:16.667Z,26.10
2019-05-26T16:27:43.078Z,26.00
2019-05-26T16:30:10.527Z,25.90
2019-05-26T16:32:37.062Z,25.90
2019-05-26T16:35:04.120Z,25.90
2019-05-26T16:37:30.440Z,25.90
2019-05-26T16:39:57.140Z,25.80
2019-05-26T16:42:23.509Z,25.80
2019-05-26T16:44:51.595Z,25.80
2019-05-26T16:47:17.924Z,25.70
2019-05-26T16:49:44.242Z,25.70
2019-05-26T16:52:10.575Z,25.70
2019-05-26T16:54:36.903Z,25.70
2019-05-26T16:57:03.540Z,25.70
2019-05-26T16:59:30.020Z,25.70
2019-05-26T17:01:56.305Z,25.80
2019-05-26T17:04:22.634Z,25.70
2019-05-26T17:06:48.910Z,25.70
2019-05-26T17:09:15.514Z,25.70
2019-05-26T17:11:41.939Z,25.70
2019-05-26T17:14:08.264Z,25.70
2019-05-26T17:16:34.594Z,25.70
2019-05-26T17:19:00.923Z,25.70
2019-05-26T17:21:27.254Z,25.70
2019-05-26T17:23:53.686Z,25.60
2019-05-26T17:26:20.019Z,25.60
2019-05-26T17:28:46.346Z,25.60
2019-05-26T17:31:12.883Z,25.60
2019-05-26T17:33:39.162Z,25.60
2019-05-26T17:36:05.543Z,25.60
2019-05-26T17:38:31.875Z,25.50
2019-05-26T17:40:58.308Z,25.50
2019-05-26T17:43:24.743Z,25.40
2019-05-26T17:45:52.992Z,25.40
2019-05-26T17:48:19.190Z,25.30
2019-05-26T17:50:45.575Z,25.20
2019-05-26T17:53:12.006Z,25.10
2019-05-26T17:55:38.440Z,25.00
2019-05-26T17:58:04.770Z,25.00
2019-05-26T18:00:31.109Z,24.90
2019-05-26T18:02:57.534Z,24.80
2019-05-26T18:05:23.966Z,24.70
2019-05-26T18:07:50.405Z,24.60
2019-05-26T18:10:17.249Z,24.50
2019-05-26T18:12:43.573Z,24.50
2019-05-26T18:15:10.250Z,24.40
2019-05-26T18:17:46.277Z,24.30
2019-05-26T18:20:05.795Z,24.20
2019-05-26T18:22:32.448Z,24.20
2019-05-26T18:24:59.384Z,24.10
2019-05-26T18:27:26.108Z,24.00
2019-05-26T18:29:52.431Z,23.90
2019-05-26T18:32:18.859Z,23.90
2019-05-26T18:34:45.407Z,23.80
2019-05-26T18:37:11.724Z,23.70
2019-05-26T18:39:38.044Z,23.70
2019-05-26T18:42:04.397Z,23.60
2019-05-26T18:44:30.818Z,23.50
2019-05-26T18:46:57.149Z,23.40
2019-05-26T18:49:23.712Z,23.30
2019-05-26T18:51:51.498Z,23.30
2019-05-26T18:54:18.317Z,23.20
2019-05-26T18:56:44.731Z,23.20
2019-05-26T18:59:11.074Z,23.10
2019-05-26T19:01:37.391Z,23.00
2019-05-26T19:04:04.841Z,23.00
2019-05-26T19:06:31.182Z,22.90
2019-05-26T19:08:57.509Z,22.90
2019-05-26T19:11:23.839Z,22.80
2019-05-26T19:13:50.273Z,22.80
2019-05-26T19:16:16.830Z,22.70
2019-05-26T19:18:43.142Z,22.70
2019-05-26T19:21:09.591Z,22.70
2019-05-26T19:23:35.901Z,22.70
2019-05-26T19:26:02.452Z,22.60
2019-05-26T19:28:28.767Z,22.60
2019-05-26T19:30:55.102Z,22.50
2019-05-26T19:33:21.428Z,22.50
2019-05-26T19:35:47.758Z,22.40
2019-05-26T19:38:14.090Z,22.40
2019-05-26T19:40:40.451Z,22.40
2019-05-26T19:43:06.855Z,22.30
2019-05-26T19:45:33.288Z,22.30
2019-05-26T19:47:59.615Z,22.20
2019-05-26T19:50:26.152Z,22.20
2019-05-26T19:52:52.432Z,22.10
2019-05-26T19:55:18.735Z,22.10
2019-05-26T19:57:45.172Z,22.00
2019-05-26T20:00:15.363Z,22.00
2019-05-26T20:02:42.031Z,21.90
2019-05-26T20:05:08.951Z,21.80
2019-05-26T20:07:35.276Z,21.80
2019-05-26T20:10:03.759Z,21.80
2019-05-26T20:12:30.087Z,21.80
2019-05-26T20:14:56.524Z,21.70
2019-05-26T20:17:23.173Z,21.60
2019-05-26T20:19:49.594Z,21.60
2019-05-26T20:22:16.129Z,21.60
2019-05-26T20:24:42.478Z,21.60
2019-05-26T20:27:08.775Z,21.50
2019-05-26T20:29:35.110Z,21.50
2019-05-26T20:32:01.421Z,21.50
2019-05-26T20:34:27.779Z,21.50
2019-05-26T20:36:54.108Z,21.50
2019-05-26T20:39:20.523Z,21.50
2019-05-26T20:41:46.875Z,21.40
2019-05-26T20:44:13.612Z,21.40
2019-05-26T20:46:40.061Z,21.40
2019-05-26T20:49:06.582Z,21.30
2019-05-26T20:51:33.218Z,21.30
2019-05-26T20:53:59.548Z,21.30
2019-05-26T20:56:26.390Z,21.20
2019-05-26T20:58:52.723Z,21.20
2019-05-26T21:01:19.052Z,21.20
2019-05-26T21:03:45.389Z,21.20
2019-05-26T21:06:12.038Z,21.20
2019-05-26T21:08:38.556Z,21.20
2019-05-26T21:11:05.092Z,21.10
2019-05-26T21:13:31.424Z,21.10
2019-05-26T21:15:57.645Z,21.10
2019-05-26T21:18:23.975Z,21.10
2019-05-26T21:20:50.411Z,21.00
2019-05-26T21:23:16.688Z,21.00
2019-05-26T21:25:43.072Z,21.00
2019-05-26T21:28:09.407Z,20.90
2019-05-26T21:30:35.734Z,20.90
2019-05-26T21:33:02.063Z,20.90
2019-05-26T21:35:28.296Z,20.90
2019-05-26T21:37:54.828Z,20.80
2019-05-26T21:40:21.586Z,20.80
2019-05-26T21:42:48.103Z,20.80
2019-05-26T21:45:14.739Z,20.80
2019-05-26T21:47:41.023Z,20.80
2019-05-26T21:50:08.426Z,20.80
2019-05-26T21:52:35.063Z,20.80
2019-05-26T21:55:01.499Z,20.70
2019-05-26T21:57:27.826Z,20.70
2019-05-26T21:59:54.051Z,20.70
2019-05-26T22:02:20.384Z,20.70
2019-05-26T22:04:46.819Z,20.70
2019-05-26T22:07:13.149Z,20.70
2019-05-26T22:09:39.687Z,20.60
2019-05-26T22:12:06.114Z,20.60
2019-05-26T22:14:32.549Z,20.60
2019-05-26T22:16:58.980Z,20.60
2019-05-26T22:19:25.267Z,20.70
2019-05-26T22:21:51.642Z,20.60
2019-05-26T22:24:17.976Z,20.60
2019-05-26T22:26:44.303Z,20.60
2019-05-26T22:29:10.634Z,20.60
2019-05-26T22:31:36.963Z,20.60
2019-05-26T22:34:03.249Z,20.60
2019-05-26T22:36:29.626Z,20.60
2019-05-26T22:38:56.056Z,20.50
2019-05-26T22:41:22.714Z,20.50
2019-05-26T22:43:49.128Z,20.40
2019-05-26T22:46:15.443Z,20.40
2019-05-26T22:48:41.754Z,20.30
2019-05-26T22:51:08.184Z,20.20
2019-05-26T22:53:34.551Z,20.20
2019-05-26T22:56:00.789Z,20.10
2019-05-26T22:58:27.063Z,20.00
2019-05-26T23:00:53.439Z,19.90
2019-05-26T23:03:19.781Z,19.90
2019-05-26T23:05:46.023Z,19.80
2019-05-26T23:08:12.329Z,19.70
2019-05-26T23:10:38.761Z,19.70
2019-05-26T23:13:05.193Z,19.60
2019-05-26T23:15:31.627Z,19.60
2019-05-26T23:17:57.881Z,19.50
2019-05-26T23:20:24.274Z,19.40
2019-05-26T23:22:50.705Z,19.30
2019-05-26T23:25:17.141Z,19.30
2019-05-26T23:27:43.483Z,19.20
2019-05-26T23:30:11.245Z,19.10
2019-05-26T23:32:37.578Z,19.00
2019-05-26T23:35:04.968Z,19.00
2019-05-26T23:37:31.365Z,18.90
2019-05-26T23:39:57.695Z,18.90
2019-05-26T23:42:24.015Z,18.80
2019-05-26T23:44:50.324Z,18.80
2019-05-26T23:47:16.687Z,18.70
2019-05-26T23:49:43.017Z,18.70
2019-05-26T23:52:09.450Z,18.70
2019-05-26T23:54:35.785Z,18.60
2019-05-26T23:57:02.174Z,18.60
2019-05-26T23:59:28.543Z,18.50
